Time;durP1;ratioP1;P1;durP2;ratioP2;P2;SDS_P1;SDS_P2;PMS_P1;PMS_P2;Temp;Humidity;BMP_temperature;BMP_pressure;BME280_temperature;BME280_humidity;BME280_pressure;Samples;Min_cycle;Max_cycle;Signal;HPM_P1;HPM_P2
2021/03/29 00:03:50;;;;;;;4.28;2.13;;;12.10;45.10;;;;;;9967483;28;20099;-64
2021/03/29 00:08:42;;;;;;;6.63;2.33;;;12.00;45.20;;;;;;9967810;28;20041;-60
2021/03/29 00:13:33;;;;;;;3.15;1.73;;;12.00;45.70;;;;;;9967911;28;20088;-63
2021/03/29 00:18:25;;;;;;;3.80;1.65;;;11.80;45.80;;;;;;9967664;28;20033;-63
2021/03/29 00:23:16;;;;;;;3.75;1.52;;;11.90;46.00;;;;;;9965546;28;21285;-62
2021/03/29 00:28:07;;;;;;;3.80;2.60;;;11.80;45.90;;;;;;9967637;28;20943;-63
2021/03/29 00:32:59;;;;;;;4.13;2.28;;;11.90;45.80;;;;;;9966812;28;20053;-72
2021/03/29 00:37:58;;;;;;;3.53;1.83;;;11.90;45.80;;;;;;9967274;28;20379;-61
2021/03/29 00:43:22;;;;;;;5.05;1.80;;;11.90;45.90;;;;;;9966652;28;20025;-63
2021/03/29 00:48:15;;;;;;;3.55;1.98;;;11.90;45.80;;;;;;9965844;28;20067;-60
2021/03/29 00:53:06;;;;;;;2.83;1.65;;;11.90;45.80;;;;;;9966757;28;20048;-61
2021/03/29 00:57:59;;;;;;;2.50;1.70;;;11.90;45.80;;;;;;9968135;28;20144;-61
2021/03/29 01:02:50;;;;;;;3.33;2.13;;;11.90;45.80;;;;;;9965887;28;20090;-60
2021/03/29 01:07:45;;;;;;;6.50;1.98;;;11.80;45.80;;;;;;9967748;28;21227;-60
2021/03/29 01:12:36;;;;;;;3.78;1.42;;;11.70;46.00;;;;;;9966773;28;20091;-61
2021/03/29 01:17:32;;;;;;;5.22;2.03;;;11.70;45.90;;;;;;9965785;28;20029;-64
2021/03/29 01:22:24;;;;;;;;;;;11.70;45.90;;;;;;9973769;28;20061;-66
2021/03/29 01:27:24;;;;;;;2.67;1.98;;;11.60;46.00;;;;;;9972161;28;19925;-63
2021/03/29 01:32:16;;;;;;;3.88;2.13;;;11.60;46.10;;;;;;9972195;28;20040;-62
2021/03/29 01:37:08;;;;;;;4.10;1.55;;;11.50;46.10;;;;;;9974010;28;20103;-63
2021/03/29 01:42:00;;;;;;;4.47;1.85;;;11.40;46.30;;;;;;9972105;28;21724;-59
2021/03/29 01:46:51;;;;;;;3.50;1.75;;;11.40;46.30;;;;;;9973649;28;20530;-61
2021/03/29 01:51:42;;;;;;;4.95;2.00;;;11.30;46.40;;;;;;9972168;28;20598;-70
2021/03/29 01:56:34;;;;;;;2.53;1.58;;;11.30;46.60;;;;;;9972546;28;20090;-66
2021/03/29 02:01:25;;;;;;;2.40;1.83;;;11.20;46.60;;;;;;9972944;28;20109;-61
2021/03/29 02:06:16;;;;;;;2.67;2.33;;;11.10;46.70;;;;;;9971615;28;20048;-61
2021/03/29 02:11:07;;;;;;;3.75;1.73;;;11.10;46.90;;;;;;9973435;28;20615;-70
2021/03/29 02:16:02;;;;;;;3.25;1.65;;;11.00;47.00;;;;;;9970476;28;20037;-61
2021/03/29 02:21:07;;;;;;;3.38;1.48;;;11.00;47.10;;;;;;9971604;28;20033;-59
2021/03/29 02:26:00;;;;;;;5.32;1.88;;;11.00;47.20;;;;;;9970072;28;20109;-59
2021/03/29 02:30:51;;;;;;;4.03;1.70;;;10.90;47.30;;;;;;9969664;28;20095;-65
2021/03/29 02:35:43;;;;;;;2.22;1.77;;;10.80;47.50;;;;;;9971909;28;20394;-59
2021/03/29 02:40:34;;;;;;;3.05;1.60;;;10.80;47.50;;;;;;9971170;28;20495;-61
2021/03/29 02:45:28;;;;;;;4.32;2.08;;;10.70;47.60;;;;;;9972019;28;21243;-62
2021/03/29 02:50:24;;;;;;;3.42;1.52;;;10.80;47.60;;;;;;9971372;28;20025;-62
2021/03/29 02:55:17;;;;;;;3.15;1.70;;;10.70;47.70;;;;;;9970100;28;20040;-61
2021/03/29 03:00:11;;;;;;;4.18;1.77;;;10.70;47.90;;;;;;9970996;28;20485;-64
2021/03/29 03:05:07;;;;;;;3.10;1.65;;;10.60;47.90;;;;;;9967812;28;20041;-62
2021/03/29 03:09:59;;;;;;;3.58;1.75;;;10.60;47.90;;;;;;9969877;28;20034;-59
2021/03/29 03:14:49;;;;;;;3.47;1.70;;;10.40;48.20;;;;;;9969023;28;20338;-65
2021/03/29 03:19:40;;;;;;;5.00;2.10;;;10.40;48.20;;;;;;9969314;28;20061;-60
2021/03/29 03:24:33;;;;;;;2.17;1.80;;;10.40;48.20;;;;;;9968907;28;20049;-61
2021/03/29 03:29:24;;;;;;;4.80;2.10;;;10.30;48.40;;;;;;9968082;28;20045;-60
2021/03/29 03:34:14;;;;;;;3.92;1.90;;;10.30;48.40;;;;;;9968050;28;20057;-61
2021/03/29 03:39:06;;;;;;;10.48;1.85;;;10.30;48.40;;;;;;9969736;28;20067;-60
2021/03/29 03:43:59;;;;;;;3.70;1.83;;;10.20;48.60;;;;;;9966176;28;20041;-65
2021/03/29 03:48:51;;;;;;;3.35;1.90;;;10.20;49.30;;;;;;9983409;28;20041;-66
2021/03/29 03:53:43;;;;;;;4.90;2.15;;;10.20;48.90;;;;;;9968480;28;20723;-63
2021/03/29 03:58:33;;;;;;;5.32;2.15;;;10.20;48.90;;;;;;9966433;28;20042;-60
2021/03/29 04:03:26;;;;;;;5.00;2.20;;;10.20;49.00;;;;;;9967847;28;20508;-63
2021/03/29 04:08:17;;;;;;;4.18;1.95;;;10.10;49.00;;;;;;9968110;28;20940;-61
2021/03/29 04:13:12;;;;;;;7.07;1.80;;;10.10;49.20;;;;;;9968527;28;20022;-63
2021/03/29 04:18:04;;;;;;;2.55;1.33;;;10.10;49.20;;;;;;9968121;28;20504;-59
2021/03/29 04:22:55;;;;;;;5.18;2.22;;;10.10;49.20;;;;;;9966722;28;22079;-60
2021/03/29 04:27:46;;;;;;;3.35;2.55;;;10.10;49.20;;;;;;9967185;28;21241;-64
2021/03/29 04:32:38;;;;;;;2.63;1.60;;;10.10;49.20;;;;;;9966190;28;20037;-63
2021/03/29 04:37:28;;;;;;;3.80;2.00;;;10.10;49.30;;;;;;9967310;28;20045;-63
2021/03/29 04:42:20;;;;;;;2.75;1.67;;;10.00;49.60;;;;;;9968090;28;20049;-65
2021/03/29 04:47:11;;;;;;;4.22;1.77;;;9.90;49.70;;;;;;9967178;28;20415;-61
2021/03/29 04:52:02;;;;;;;4.20;1.90;;;9.80;50.00;;;;;;9969539;28;20077;-59
2021/03/29 04:56:53;;;;;;;3.83;1.60;;;9.70;50.10;;;;;;9975116;28;20521;-65
2021/03/29 05:01:44;;;;;;;4.18;2.17;;;9.70;50.50;;;;;;9972465;28;20033;-62
2021/03/29 05:06:35;;;;;;;6.30;2.20;;;9.60;50.60;;;;;;9973766;28;20074;-63
2021/03/29 05:11:33;;;;;;;2.90;1.77;;;9.60;51.50;;;;;;9971643;28;20906;-63
2021/03/29 05:16:24;;;;;;;2.63;1.90;;;9.50;51.20;;;;;;9974763;28;20475;-62
2021/03/29 05:21:14;;;;;;;5.90;2.35;;;9.40;51.20;;;;;;9974196;28;20026;-62
2021/03/29 05:26:05;;;;;;;4.00;1.92;;;9.50;51.20;;;;;;9971046;28;20037;-61
2021/03/29 05:30:56;;;;;;;4.28;2.70;;;9.40;51.40;;;;;;9988501;28;20095;-60
2021/03/29 05:35:47;;;;;;;2.70;2.22;;;9.50;51.60;;;;;;9973793;28;20091;-62
2021/03/29 05:40:38;;;;;;;2.45;1.85;;;9.40;51.60;;;;;;9973693;28;20041;-63
2021/03/29 05:45:31;;;;;;;4.63;2.55;;;9.50;51.70;;;;;;9974037;28;20041;-63
2021/03/29 05:50:22;;;;;;;2.20;1.77;;;9.50;52.00;;;;;;9972131;28;20090;-61
2021/03/29 05:55:14;;;;;;;3.15;2.28;;;9.50;52.10;;;;;;9972119;28;20033;-60
2021/03/29 06:00:36;;;;;;;4.53;2.08;;;9.40;52.50;;;;;;9972195;28;20072;-61
2021/03/29 06:05:36;;;;;;;5.45;2.20;;;9.30;53.10;;;;;;9972907;28;20036;-60
2021/03/29 06:10:35;;;;;;;6.32;2.88;;;9.30;52.90;;;;;;9985945;28;20057;-65
2021/03/29 06:15:28;;;;;;;3.13;2.53;;;9.30;52.70;;;;;;9970419;28;20021;-60
2021/03/29 06:20:18;;;;;;;3.33;2.00;;;9.40;52.60;;;;;;9971295;28;21058;-60
2021/03/29 06:25:11;;;;;;;5.15;2.13;;;9.40;52.60;;;;;;9969510;28;20475;-60
2021/03/29 06:30:27;;;;;;;7.05;2.45;;;9.50;52.80;;;;;;9971585;28;20063;-60
2021/03/29 06:35:22;;;;;;;4.18;2.80;;;9.50;52.70;;;;;;9969941;28;20134;-59
2021/03/29 06:40:13;;;;;;;5.10;2.65;;;9.60;52.80;;;;;;9970036;28;20100;-57
2021/03/29 06:45:15;;;;;;;4.10;2.33;;;9.60;52.80;;;;;;9971504;28;20041;-57
2021/03/29 06:50:07;;;;;;;4.82;2.30;;;9.70;52.60;;;;;;9967613;28;20041;-59
2021/03/29 06:55:18;;;;;;;35.65;14.52;;;9.90;52.50;;;;;;9982560;28;20110;-57
2021/03/29 07:00:28;;;;;;;5.30;2.83;;;10.10;52.30;;;;;;9963714;28;20192;-55
2021/03/29 07:05:20;;;;;;;3.25;2.28;;;10.10;52.60;;;;;;9968795;28;20349;-55
2021/03/29 07:10:13;;;;;;;6.03;2.45;;;10.20;52.60;;;;;;9969284;28;20022;-56
2021/03/29 07:15:10;;;;;;;4.13;2.25;;;10.40;52.20;;;;;;9964947;28;20061;-61
2021/03/29 07:20:02;;;;;;;6.32;2.35;;;10.40;52.10;;;;;;9890278;28;20435;-57
2021/03/29 07:25:01;;;;;;;4.25;2.03;;;10.60;51.90;;;;;;9943274;28;20045;-60
2021/03/29 07:29:51;;;;;;;5.38;2.25;;;10.70;51.80;;;;;;9942616;28;20029;-57
2021/03/29 07:34:48;;;;;;;6.10;2.00;;;10.70;51.80;;;;;;9943286;28;20073;-57
2021/03/29 07:39:44;;;;;;;7.70;2.17;;;10.70;51.90;;;;;;9946509;28;20915;-57
2021/03/29 07:44:56;;;;;;;3.58;2.10;;;10.80;51.50;;;;;;9946283;28;20033;-57
2021/03/29 07:49:47;;;;;;;3.70;1.95;;;11.00;51.40;;;;;;9943899;28;20442;-63
2021/03/29 07:54:51;;;;;;;3.55;2.40;;;11.20;51.10;;;;;;9946797;28;20033;-57
2021/03/29 07:59:45;;;;;;;7.43;2.83;;;11.30;51.00;;;;;;9942894;28;20037;-57
2021/03/29 08:05:01;;;;;;;5.00;1.88;;;11.40;50.80;;;;;;9945467;28;20403;-59
2021/03/29 08:09:51;;;;;;;6.17;2.40;;;11.60;50.60;;;;;;9941445;28;20612;-56
2021/03/29 08:14:42;;;;;;;5.60;2.17;;;11.70;50.40;;;;;;9941616;28;20034;-62
2021/03/29 08:19:33;;;;;;;5.38;2.03;;;11.80;50.20;;;;;;9943447;28;20041;-53
2021/03/29 08:24:32;;;;;;;4.25;1.77;;;11.90;50.20;;;;;;9940783;28;20653;-58
2021/03/29 08:29:35;;;;;;;5.15;1.98;;;12.00;50.10;;;;;;9944636;28;20403;-59
2021/03/29 08:34:30;;;;;;;3.47;2.03;;;12.20;49.80;;;;;;9946311;28;20077;-58
2021/03/29 08:39:21;;;;;;;6.85;2.17;;;12.40;49.40;;;;;;9944901;28;20223;-55
2021/03/29 08:44:12;;;;;;;4.15;2.00;;;12.60;49.10;;;;;;9945515;28;20775;-63
2021/03/29 08:49:10;;;;;;;4.95;2.47;;;12.70;48.70;;;;;;9941692;28;20201;-57
2021/03/29 08:54:05;;;;;;;5.43;2.13;;;12.90;48.50;;;;;;9941093;28;20509;-62
2021/03/29 08:58:56;;;;;;;2.53;1.47;;;13.10;48.00;;;;;;9940710;28;20224;-61
2021/03/29 09:04:00;;;;;;;6.00;2.00;;;13.30;47.90;;;;;;9943089;28;20068;-60
2021/03/29 09:08:50;;;;;;;2.35;1.70;;;13.50;47.50;;;;;;9939517;28;20123;-58
2021/03/29 09:13:41;;;;;;;11.38;4.78;;;13.70;47.20;;;;;;9938756;28;20366;-55
2021/03/29 09:18:32;;;;;;;3.65;2.85;;;14.00;46.80;;;;;;9939343;28;20381;-57
2021/03/29 09:23:33;;;;;;;3.05;2.20;;;14.20;46.60;;;;;;9937647;28;20507;-57
2021/03/29 09:33:23;;;;;;;6.38;2.20;;;14.30;46.20;;;;;;9938551;28;20195;-54
2021/03/29 09:38:15;;;;;;;6.32;2.35;;;14.30;46.30;;;;;;9943246;28;20033;-55
2021/03/29 09:43:18;;;;;;;4.40;2.20;;;14.40;46.00;;;;;;9949913;28;20536;-57
2021/03/29 09:48:10;;;;;;;4.43;2.53;;;14.50;45.70;;;;;;9947283;28;20037;-61
2021/03/29 09:53:15;;;;;;;3.30;1.65;;;14.70;45.30;;;;;;9950116;28;20618;-65
2021/03/29 09:58:05;;;;;;;4.25;2.28;;;14.90;45.10;;;;;;9946838;28;20034;-53
2021/03/29 10:03:00;;;;;;;4.50;2.47;;;15.10;44.90;;;;;;9948254;28;20042;-60
2021/03/29 10:07:54;;;;;;;5.13;1.90;;;15.10;44.80;;;;;;9947842;28;20052;-66
2021/03/29 10:12:44;;;;;;;4.32;1.90;;;15.30;44.50;;;;;;9948573;28;20400;-58
2021/03/29 10:17:36;;;;;;;4.82;1.75;;;15.30;44.30;;;;;;9949516;28;20029;-60
2021/03/29 10:22:26;;;;;;;3.75;1.65;;;15.60;44.00;;;;;;9944766;28;20519;-58
2021/03/29 10:27:17;;;;;;;3.53;1.85;;;15.70;43.80;;;;;;9946531;28;20041;-59
2021/03/29 10:32:19;;;;;;;3.65;2.15;;;15.80;43.70;;;;;;9944519;28;20128;-52
2021/03/29 10:37:17;;;;;;;3.63;1.92;;;15.90;43.50;;;;;;9946607;28;20473;-57
2021/03/29 10:42:08;;;;;;;5.75;1.92;;;16.00;43.10;;;;;;9947190;28;20499;-55
2021/03/29 10:47:00;;;;;;;3.30;1.58;;;16.20;43.00;;;;;;9947306;28;20535;-59
2021/03/29 10:51:50;;;;;;;3.47;1.83;;;16.30;42.50;;;;;;9946223;28;20112;-58
2021/03/29 10:56:41;;;;;;;3.45;1.70;;;16.40;42.40;;;;;;9948054;28;20954;-61
2021/03/29 11:01:32;;;;;;;3.35;1.35;;;16.40;42.00;;;;;;9946028;28;20025;-61
2021/03/29 11:06:23;;;;;;;4.68;1.30;;;16.60;41.70;;;;;;9944368;28;20041;-61
2021/03/29 11:11:13;;;;;;;2.70;1.48;;;16.70;41.30;;;;;;9945909;28;20495;-61
2021/03/29 11:16:08;;;;;;;3.17;1.95;;;16.80;40.90;;;;;;9962088;28;21195;-61
2021/03/29 11:20:58;;;;;;;3.05;1.42;;;16.90;40.60;;;;;;9946204;28;20504;-59
2021/03/29 11:25:49;;;;;;;3.88;1.48;;;16.90;40.40;;;;;;9944284;28;20331;-56
2021/03/29 11:30:40;;;;;;;2.53;1.30;;;17.00;40.30;;;;;;9942241;28;20986;-59
2021/03/29 11:35:32;;;;;;;3.95;1.52;;;17.10;40.10;;;;;;9945916;28;20073;-60
2021/03/29 11:40:22;;;;;;;2.30;1.50;;;17.20;39.90;;;;;;9944805;28;20103;-58
2021/03/29 11:45:14;;;;;;;2.97;1.70;;;17.30;39.60;;;;;;9943446;28;20480;-62
2021/03/29 11:50:09;;;;;;;2.45;1.63;;;17.40;39.40;;;;;;9942861;28;20113;-60
2021/03/29 11:55:00;;;;;;;2.85;1.27;;;17.60;38.90;;;;;;9942259;28;20117;-60
2021/03/29 11:59:53;;;;;;;5.07;1.90;;;17.90;38.20;;;;;;9941898;28;20494;-59
2021/03/29 12:04:53;;;;;;;2.15;1.20;;;17.90;37.70;;;;;;9942821;28;20691;-61
2021/03/29 12:14:59;;;;;;;2.87;1.50;;;18.00;37.10;;;;;;9924597;28;20060;-60
2021/03/29 12:19:49;;;;;;;65.75;34.70;;;18.10;36.70;;;;;;9937652;28;20029;-60
2021/03/29 12:24:44;;;;;;;21.30;12.93;;;18.30;36.60;;;;;;9940011;28;20511;-56
2021/03/29 12:29:39;;;;;;;9.57;5.70;;;19.00;35.90;;;;;;9941330;28;20148;-60
2021/03/29 12:34:30;;;;;;;;;;;19.10;35.80;;;;;;9938811;28;20966;-53
2021/03/29 12:39:31;;;;;;;4.10;1.90;;;19.40;34.70;;;;;;9941986;28;21787;-59
2021/03/29 12:44:23;;;;;;;4.70;1.63;;;19.80;35.90;;;;;;9939108;28;20971;-56
2021/03/29 12:49:15;;;;;;;2.58;1.63;;;20.20;35.70;;;;;;9943697;28;20287;-60
2021/03/29 12:54:12;;;;;;;3.30;1.25;;;20.50;35.10;;;;;;9941486;28;20026;-59
2021/03/29 12:59:04;;;;;;;2.08;1.17;;;20.80;35.10;;;;;;9942141;28;20124;-59
2021/03/29 13:04:00;;;;;;;5.57;1.35;;;21.30;35.00;;;;;;9941655;28;20033;-61
2021/03/29 13:08:51;;;;;;;2.47;1.30;;;21.60;34.50;;;;;;9942796;28;20480;-60
2021/03/29 13:13:42;;;;;;;3.97;2.00;;;21.90;34.70;;;;;;9946389;28;20124;-59
2021/03/29 13:18:33;;;;;;;2.85;1.83;;;22.60;34.40;;;;;;9949614;28;20041;-60
2021/03/29 13:23:24;;;;;;;3.63;1.35;;;23.10;34.00;;;;;;9948335;28;20416;-59
2021/03/29 13:28:15;;;;;;;2.53;1.92;;;23.70;33.00;;;;;;9948414;28;21051;-63
2021/03/29 13:33:06;;;;;;;2.55;1.67;;;24.40;31.30;;;;;;9950396;28;20619;-58
2021/03/29 13:37:59;;;;;;;1.77;1.25;;;27.00;30.00;;;;;;9950776;28;20034;-58
2021/03/29 13:42:53;;;;;;;3.03;1.17;;;29.50;28.30;;;;;;9963463;28;20570;-60
2021/03/29 13:47:44;;;;;;;5.25;1.50;;;30.70;26.90;;;;;;9947525;28;21143;-61
2021/03/29 13:52:36;;;;;;;2.72;1.30;;;31.30;26.00;;;;;;9949321;28;20104;-61
2021/03/29 13:57:27;;;;;;;27.23;17.70;;;32.10;25.50;;;;;;9945900;28;20470;-63
2021/03/29 14:02:18;;;;;;;8.37;5.03;;;32.40;25.10;;;;;;9947476;28;20021;-63
2021/03/29 14:07:12;;;;;;;6.00;4.50;;;32.80;25.00;;;;;;9947727;28;20284;-66
2021/03/29 14:12:04;;;;;;;7.75;4.43;;;33.10;25.00;;;;;;9963079;28;20045;-67
2021/03/29 14:16:55;;;;;;;5.93;3.10;;;32.90;24.90;;;;;;9946212;28;20088;-63
2021/03/29 14:21:47;;;;;;;7.10;3.50;;;31.00;24.70;;;;;;9948040;28;20053;-64
2021/03/29 14:26:39;;;;;;;4.55;2.10;;;30.20;24.90;;;;;;9947005;28;20041;-64
2021/03/29 14:31:30;;;;;;;5.38;2.83;;;30.00;25.00;;;;;;9950189;28;20510;-62
2021/03/29 14:46:15;;;;;;;2.47;1.52;;;29.50;24.80;;;;;;9947646;28;20057;-61
2021/03/29 14:51:06;;;;;;;4.05;2.05;;;29.70;24.40;;;;;;9949765;28;20076;-65
2021/03/29 14:55:57;;;;;;;17.15;9.75;;;30.00;24.20;;;;;;9946488;28;20340;-62
2021/03/29 15:00:48;;;;;;;4.85;3.38;;;30.60;23.90;;;;;;9945760;28;20136;-66
2021/03/29 15:10:32;;;;;;;3.45;1.70;;;31.20;23.10;;;;;;9946942;28;20577;-61
2021/03/29 15:15:23;;;;;;;2.97;1.88;;;31.50;22.80;;;;;;9945909;28;20086;-60
2021/03/29 15:20:14;;;;;;;6.78;2.30;;;32.40;22.70;;;;;;9945479;28;20210;-61
2021/03/29 15:25:06;;;;;;;6.33;3.50;;;32.70;22.00;;;;;;9941350;28;20839;-63
2021/03/29 15:29:56;;;;;;;54.93;40.40;;;33.50;21.70;;;;;;9939116;28;20328;-56
2021/03/29 15:34:47;;;;;;;34.22;22.75;;;34.10;21.40;;;;;;9966495;28;20550;-53
2021/03/29 15:39:38;;;;;;;5.60;4.05;;;34.30;21.30;;;;;;9927991;28;20029;-60
2021/03/29 15:44:29;;;;;;;5.20;2.75;;;34.60;21.00;;;;;;10000787;28;20366;-52
2021/03/29 15:49:20;;;;;;;6.43;4.10;;;34.20;20.90;;;;;;9943953;28;20033;-52
2021/03/29 15:54:12;;;;;;;4.10;2.40;;;34.10;20.80;;;;;;9987381;28;20049;-59
2021/03/29 15:59:03;;;;;;;3.28;2.03;;;34.00;20.80;;;;;;9987625;28;20115;-61
2021/03/29 16:03:56;;;;;;;5.10;1.98;;;34.40;20.30;;;;;;9989347;28;20089;-61
2021/03/29 16:08:46;;;;;;;2.30;1.55;;;33.40;20.40;;;;;;9989512;28;20037;-59
2021/03/29 16:13:37;;;;;;;6.03;2.47;;;33.90;20.10;;;;;;9988201;28;20503;-61
2021/03/29 16:18:28;;;;;;;3.13;1.75;;;34.20;20.00;;;;;;9987913;28;20037;-59
2021/03/29 16:23:19;;;;;;;4.90;2.28;;;33.90;20.10;;;;;;9988382;28;20208;-59
2021/03/29 16:28:10;;;;;;;3.92;2.30;;;33.90;20.00;;;;;;9986867;28;20416;-62
2021/03/29 16:33:01;;;;;;;5.60;3.28;;;33.70;19.90;;;;;;9985754;28;20057;-64
2021/03/29 16:37:52;;;;;;;41.95;29.30;;;33.70;19.80;;;;;;9986557;28;20284;-53
2021/03/29 16:42:43;;;;;;;19.55;12.43;;;33.20;20.00;;;;;;9987608;28;20022;-61
2021/03/29 16:47:34;;;;;;;12.77;5.07;;;32.50;20.50;;;;;;9991051;28;20045;-62
2021/03/29 16:52:24;;;;;;;6.82;3.90;;;32.30;20.20;;;;;;10000256;28;20029;-61
2021/03/29 16:57:15;;;;;;;10.45;4.68;;;32.30;20.10;;;;;;10000683;28;20341;-61
2021/03/29 17:02:06;;;;;;;6.53;3.67;;;31.80;20.20;;;;;;9999729;28;20045;-61
2021/03/29 17:06:58;;;;;;;8.77;5.32;;;31.30;20.40;;;;;;10000096;28;20038;-62
2021/03/29 17:11:49;;;;;;;15.75;7.07;;;30.70;20.60;;;;;;10001310;28;20033;-62
2021/03/29 17:16:39;;;;;;;9.63;5.07;;;28.20;21.40;;;;;;9998247;28;20132;-62
2021/03/29 17:21:36;;;;;;;12.88;6.72;;;25.70;22.60;;;;;;9999692;28;20367;-62
2021/03/29 17:26:27;;;;;;;11.52;6.05;;;24.30;23.10;;;;;;10000794;28;21102;-63
2021/03/29 17:31:18;;;;;;;5.97;3.50;;;23.50;23.30;;;;;;10002268;28;20037;-64
2021/03/29 17:36:10;;;;;;;18.65;8.57;;;23.00;23.50;;;;;;10001585;28;20175;-61
2021/03/29 17:41:06;;;;;;;15.32;7.90;;;22.70;24.20;;;;;;10000736;28;20080;-60
2021/03/29 17:45:57;;;;;;;17.02;9.75;;;22.40;23.90;;;;;;10001707;28;20040;-62
2021/03/29 17:50:47;;;;;;;12.00;5.55;;;22.10;24.10;;;;;;10000553;28;20025;-64
2021/03/29 17:55:38;;;;;;;8.35;3.47;;;21.80;24.30;;;;;;9997724;28;20049;-61
2021/03/29 18:00:29;;;;;;;10.30;5.38;;;21.60;24.50;;;;;;9996430;28;20049;-62
2021/03/29 18:05:20;;;;;;;11.38;4.03;;;21.50;24.70;;;;;;9995089;28;20049;-62
2021/03/29 18:10:11;;;;;;;5.78;3.85;;;21.30;24.80;;;;;;9992694;28;20725;-61
2021/03/29 18:15:02;;;;;;;15.95;5.18;;;21.20;24.90;;;;;;9994914;28;20154;-61
2021/03/29 18:19:53;;;;;;;6.95;2.45;;;21.20;25.10;;;;;;9993691;28;20446;-60
2021/03/29 18:24:44;;;;;;;4.15;2.35;;;21.00;25.20;;;;;;9988957;28;20128;-61
2021/03/29 18:29:34;;;;;;;5.95;2.92;;;20.90;25.40;;;;;;9992493;28;20040;-61
2021/03/29 18:34:25;;;;;;;8.80;3.63;;;20.90;25.50;;;;;;9994138;28;22019;-62
2021/03/29 18:39:19;;;;;;;8.32;3.60;;;20.80;25.70;;;;;;9993846;28;20116;-60
2021/03/29 18:44:10;;;;;;;8.80;2.90;;;20.60;25.90;;;;;;9992939;28;20495;-60
2021/03/29 18:49:01;;;;;;;8.40;4.68;;;20.40;26.10;;;;;;9993640;28;20048;-61
2021/03/29 18:53:53;;;;;;;12.05;5.88;;;20.30;26.40;;;;;;9991622;28;20079;-59
2021/03/29 18:58:44;;;;;;;13.60;5.15;;;20.40;26.30;;;;;;9992439;28;20045;-60
2021/03/29 19:03:35;;;;;;;6.18;3.22;;;20.20;26.40;;;;;;9991512;28;20037;-63
2021/03/29 19:08:28;;;;;;;22.17;13.20;;;20.10;26.70;;;;;;9988837;28;20388;-65
2021/03/29 19:13:19;;;;;;;14.43;8.48;;;20.00;27.10;;;;;;9985143;28;20151;-63
2021/03/29 19:18:11;;;;;;;8.13;5.28;;;19.80;27.30;;;;;;10005957;28;21216;-73
2021/03/29 19:23:06;;;;;;;10.15;4.22;;;19.70;27.60;;;;;;9986799;28;20041;-68
2021/03/29 19:27:57;;;;;;;8.10;5.50;;;19.50;27.80;;;;;;9990554;28;20423;-69
2021/03/29 19:32:48;;;;;;;13.05;5.72;;;19.50;27.90;;;;;;9991487;28;20082;-69
2021/03/29 19:37:38;;;;;;;14.25;6.18;;;19.30;28.20;;;;;;9989022;28;20072;-68
2021/03/29 19:42:29;;;;;;;17.02;9.05;;;19.20;28.50;;;;;;9991327;28;20064;-69
2021/03/29 19:47:20;;;;;;;11.07;5.80;;;19.20;28.60;;;;;;9990852;28;20436;-69
2021/03/29 19:52:11;;;;;;;18.70;10.30;;;19.10;28.80;;;;;;9989704;28;20045;-68
2021/03/29 19:57:02;;;;;;;16.70;9.52;;;19.00;28.90;;;;;;9989437;28;21198;-71
2021/03/29 20:02:05;;;;;;;11.50;6.50;;;18.90;29.10;;;;;;9988053;28;20029;-69
2021/03/29 20:11:50;;;;;;;15.18;7.80;;;18.70;29.50;;;;;;9988780;28;20033;-67
2021/03/29 20:16:41;;;;;;;17.40;9.55;;;18.70;29.70;;;;;;9990273;28;20400;-70
2021/03/29 20:21:32;;;;;;;14.82;6.82;;;18.60;29.80;;;;;;9989699;28;20083;-69
2021/03/29 20:26:23;;;;;;;14.90;6.18;;;18.50;29.90;;;;;;9986238;28;20824;-68
2021/03/29 20:31:14;;;;;;;14.75;6.88;;;18.50;30.00;;;;;;9988870;28;20176;-68
2021/03/29 20:36:05;;;;;;;11.52;5.28;;;18.50;30.00;;;;;;9988814;28;20630;-70
2021/03/29 20:40:56;;;;;;;12.00;5.60;;;18.40;30.10;;;;;;9986991;28;20502;-68
2021/03/29 20:45:47;;;;;;;11.60;5.10;;;18.20;30.50;;;;;;9989711;28;20148;-68
2021/03/29 20:50:38;;;;;;;10.07;5.68;;;18.00;30.70;;;;;;9987629;28;20425;-67
2021/03/29 20:55:29;;;;;;;10.52;5.85;;;17.90;30.90;;;;;;9987172;28;20152;-68
2021/03/29 21:00:22;;;;;;;11.07;5.35;;;17.90;31.40;;;;;;9986873;28;20025;-67
2021/03/29 21:05:13;;;;;;;13.60;6.10;;;17.70;31.40;;;;;;9986025;28;20033;-66
2021/03/29 21:10:06;;;;;;;9.63;5.35;;;17.60;31.60;;;;;;9988388;28;20119;-67
2021/03/29 21:14:56;;;;;;;13.23;5.40;;;17.50;32.10;;;;;;9988085;28;20041;-67
2021/03/29 21:19:47;;;;;;;9.98;5.05;;;17.40;32.30;;;;;;9987934;28;20037;-66
2021/03/29 21:24:38;;;;;;;8.55;5.35;;;17.30;32.60;;;;;;9987319;28;20197;-64
2021/03/29 21:29:29;;;;;;;10.18;5.35;;;17.20;32.80;;;;;;9986077;28;20061;-64
2021/03/29 21:34:19;;;;;;;10.30;5.53;;;17.10;33.20;;;;;;9990070;28;20060;-65
2021/03/29 21:39:10;;;;;;;10.63;5.78;;;17.00;33.40;;;;;;9995918;28;20078;-64
2021/03/29 21:44:01;;;;;;;7.95;4.80;;;16.90;33.70;;;;;;9994649;28;20033;-66
2021/03/29 21:48:52;;;;;;;11.57;4.78;;;16.90;34.00;;;;;;10011113;28;20025;-63
2021/03/29 21:53:43;;;;;;;12.52;6.00;;;16.90;34.20;;;;;;9994027;28;20592;-66
2021/03/29 21:58:34;;;;;;;8.95;5.10;;;16.90;34.20;;;;;;9995174;28;20053;-68
2021/03/29 22:03:25;;;;;;;6.75;4.45;;;16.80;34.40;;;;;;9994718;28;20033;-64
2021/03/29 22:08:16;;;;;;;9.68;5.50;;;16.70;34.70;;;;;;9993442;28;20041;-63
2021/03/29 22:13:07;;;;;;;14.07;6.82;;;16.70;35.60;;;;;;9995148;28;20095;-65
2021/03/29 22:17:59;;;;;;;22.48;9.50;;;16.60;35.00;;;;;;9993310;28;20057;-63
2021/03/29 22:22:50;;;;;;;11.57;4.90;;;16.50;35.30;;;;;;9992897;28;20037;-62
2021/03/29 22:27:48;;;;;;;11.95;4.80;;;16.30;35.40;;;;;;9993559;28;21187;-62
2021/03/29 22:32:45;;;;;;;12.15;5.30;;;16.20;35.90;;;;;;9992585;28;20048;-63
2021/03/29 22:42:48;;;;;;;6.97;4.78;;;16.10;36.30;;;;;;9992585;28;20156;-64
2021/03/29 22:47:39;;;;;;;8.68;4.50;;;16.00;36.50;;;;;;9992758;28;20025;-64
2021/03/29 22:52:30;;;;;;;7.47;4.03;;;16.00;36.80;;;;;;9991778;28;20029;-63
2021/03/29 22:57:21;;;;;;;9.43;4.63;;;15.90;36.90;;;;;;9992269;28;20041;-63
2021/03/29 23:02:12;;;;;;;7.05;4.43;;;15.60;36.90;;;;;;9991834;28;20069;-64
2021/03/29 23:07:04;;;;;;;9.50;4.50;;;15.60;37.60;;;;;;9991535;28;20033;-62
2021/03/29 23:11:54;;;;;;;11.20;4.22;;;15.70;37.80;;;;;;9991581;28;20041;-62
2021/03/29 23:16:45;;;;;;;11.02;4.55;;;15.60;38.10;;;;;;9992011;28;20407;-62
2021/03/29 23:21:36;;;;;;;9.13;4.82;;;15.50;38.20;;;;;;9991280;28;20617;-63
2021/03/29 23:26:27;;;;;;;8.10;3.90;;;15.40;38.60;;;;;;9990670;28;20695;-63
2021/03/29 23:31:18;;;;;;;6.95;4.32;;;15.40;38.70;;;;;;9989810;28;20542;-61
2021/03/29 23:36:08;;;;;;;5.57;3.35;;;15.30;39.10;;;;;;9991328;28;20106;-63
2021/03/29 23:41:00;;;;;;;7.72;4.13;;;15.20;39.30;;;;;;9991035;28;20041;-66
2021/03/29 23:45:51;;;;;;;6.43;4.13;;;15.10;39.60;;;;;;9983870;28;20103;-64
2021/03/29 23:50:42;;;;;;;7.05;3.70;;;15.00;39.70;;;;;;10000473;28;20450;-62
2021/03/29 23:55:33;;;;;;;6.82;3.45;;;14.90;40.10;;;;;;9999643;28;20060;-67
